createdAt,value
2023-05-10T00:00:21.541Z,8.80
2023-05-10T00:03:13.766Z,8.78
2023-05-10T00:05:47.044Z,8.70
2023-05-10T00:08:20.176Z,8.68
2023-05-10T00:10:54.225Z,8.60
2023-05-10T00:13:27.426Z,8.60
2023-05-10T00:16:00.668Z,8.50
2023-05-10T00:18:33.869Z,8.50
2023-05-10T00:21:07.636Z,8.40
2023-05-10T00:23:40.841Z,8.38
2023-05-10T00:26:14.002Z,8.30
2023-05-10T00:28:48.251Z,8.30
2023-05-10T00:31:21.477Z,8.20
2023-05-10T00:33:54.689Z,8.20
2023-05-10T00:36:28.682Z,8.20
2023-05-10T00:39:01.900Z,8.10
2023-05-10T00:41:35.428Z,8.10
2023-05-10T00:44:09.009Z,8.10
2023-05-10T00:46:42.344Z,8.08
2023-05-10T00:49:15.637Z,8.00
2023-05-10T00:51:49.062Z,8.00
2023-05-10T00:54:22.298Z,8.00
2023-05-10T00:56:57.923Z,7.90
2023-05-10T00:59:32.560Z,7.90
2023-05-10T01:02:07.341Z,7.82
2023-05-10T01:04:41.741Z,7.80
2023-05-10T01:07:15.015Z,7.74
2023-05-10T01:09:48.523Z,7.70
2023-05-10T01:12:22.967Z,7.70
2023-05-10T01:14:56.996Z,7.60
2023-05-10T01:17:31.078Z,7.58
2023-05-10T01:20:04.360Z,7.60
2023-05-10T01:23:03.155Z,7.54
2023-05-10T01:26:18.430Z,7.60
2023-05-10T01:29:21.042Z,7.56
2023-05-10T01:32:33.104Z,7.50
2023-05-10T01:35:12.858Z,7.50
2023-05-10T01:37:59.903Z,7.40
2023-05-10T01:40:41.873Z,7.40
2023-05-10T01:43:27.737Z,7.40
2023-05-10T01:46:11.962Z,7.30
2023-05-10T01:48:55.638Z,7.30
2023-05-10T01:51:38.412Z,7.24
2023-05-10T01:54:14.247Z,7.30
2023-05-10T01:56:54.694Z,7.40
2023-05-10T01:59:37.417Z,7.40
2023-05-10T02:02:12.839Z,7.30
2023-05-10T02:04:48.425Z,7.30
2023-05-10T02:07:23.819Z,7.30
2023-05-10T02:10:00.021Z,7.24
2023-05-10T02:12:37.233Z,7.20
2023-05-10T02:15:14.891Z,7.18
2023-05-10T02:17:50.484Z,7.10
2023-05-10T02:20:25.437Z,7.10
2023-05-10T02:23:00.692Z,7.20
2023-05-10T02:25:35.246Z,7.20
2023-05-10T02:28:11.344Z,7.20
2023-05-10T02:30:45.926Z,7.20
2023-05-10T02:33:20.731Z,7.10
2023-05-10T02:35:56.746Z,7.10
2023-05-10T02:38:32.374Z,7.10
2023-05-10T02:41:09.989Z,7.10
2023-05-10T02:43:46.298Z,7.10
2023-05-10T02:46:19.739Z,7.10
2023-05-10T02:48:53.024Z,7.10
2023-05-10T02:51:34.709Z,7.08
2023-05-10T02:54:14.793Z,7.10
2023-05-10T02:56:59.499Z,7.10
2023-05-10T02:59:33.573Z,7.20
2023-05-10T03:02:07.398Z,7.20
2023-05-10T03:04:40.696Z,7.20
2023-05-10T03:07:14.310Z,7.20
2023-05-10T03:09:47.635Z,7.20
2023-05-10T03:12:33.826Z,7.20
2023-05-10T03:15:19.880Z,7.20
2023-05-10T03:18:03.716Z,7.20
2023-05-10T03:20:46.585Z,7.20
2023-05-10T03:23:32.045Z,7.28
2023-05-10T03:26:06.897Z,7.40
2023-05-10T03:28:40.710Z,7.50
2023-05-10T03:31:15.176Z,7.50
2023-05-10T03:33:56.110Z,7.50
2023-05-10T03:36:31.687Z,7.50
2023-05-10T03:39:05.373Z,7.52
2023-05-10T03:41:38.481Z,7.60
2023-05-10T03:44:11.664Z,7.60
2023-05-10T03:46:44.923Z,7.60
2023-05-10T03:49:18.033Z,7.70
2023-05-10T03:51:51.517Z,7.70
2023-05-10T03:54:28.055Z,7.80
2023-05-10T03:57:02.393Z,7.88
2023-05-10T03:59:37.019Z,7.90
2023-05-10T04:02:10.229Z,7.98
2023-05-10T04:04:44.002Z,8.00
2023-05-10T04:07:17.314Z,8.00
2023-05-10T04:09:50.479Z,8.10
2023-05-10T04:12:23.697Z,8.10
2023-05-10T04:14:56.845Z,8.20
2023-05-10T04:17:30.261Z,8.32
2023-05-10T04:20:04.570Z,9.38
2023-05-10T04:22:38.399Z,10.68
2023-05-10T04:25:14.495Z,11.70
2023-05-10T04:27:47.689Z,12.56
2023-05-10T04:30:21.444Z,13.40
2023-05-10T04:32:54.684Z,13.96
2023-05-10T04:35:28.196Z,14.54
2023-05-10T04:38:01.427Z,15.10
2023-05-10T04:40:35.242Z,15.64
2023-05-10T04:43:08.394Z,15.90
2023-05-10T04:45:41.569Z,16.30
2023-05-10T04:48:14.726Z,16.68
2023-05-10T04:50:47.885Z,17.20
2023-05-10T04:53:21.128Z,17.60
2023-05-10T04:55:54.938Z,17.92
2023-05-10T04:58:28.140Z,18.30
2023-05-10T05:01:09.137Z,18.70
2023-05-10T05:03:42.521Z,19.00
2023-05-10T05:06:15.830Z,19.42
2023-05-10T05:08:50.549Z,19.80
2023-05-10T05:11:23.987Z,20.00
2023-05-10T05:13:57.151Z,20.20
2023-05-10T05:16:32.378Z,20.10
2023-05-10T05:19:06.149Z,20.52
2023-05-10T05:21:39.611Z,20.70
2023-05-10T05:24:13.650Z,21.18
2023-05-10T05:26:46.694Z,21.68
2023-05-10T05:29:19.848Z,21.60
2023-05-10T05:31:55.371Z,21.30
2023-05-10T05:34:28.908Z,21.60
2023-05-10T05:37:01.950Z,22.06
2023-05-10T05:39:35.069Z,22.34
2023-05-10T05:42:08.421Z,22.40
2023-05-10T05:44:42.016Z,22.40
2023-05-10T05:47:15.580Z,22.40
2023-05-10T05:49:48.690Z,22.60
2023-05-10T05:52:22.274Z,22.46
2023-05-10T05:54:55.613Z,22.14
2023-05-10T05:57:28.763Z,22.34
2023-05-10T06:00:02.241Z,22.64
2023-05-10T06:02:46.182Z,22.60
2023-05-10T06:05:19.826Z,22.70
2023-05-10T06:07:53.263Z,22.50
2023-05-10T06:10:27.831Z,22.90
2023-05-10T06:13:01.146Z,23.72
2023-05-10T06:15:34.709Z,24.40
2023-05-10T06:18:08.159Z,24.82
2023-05-10T06:20:43.036Z,25.38
2023-05-10T06:23:16.196Z,25.40
2023-05-10T06:25:49.360Z,25.58
2023-05-10T06:28:22.658Z,25.40
2023-05-10T06:30:55.851Z,25.10
2023-05-10T06:33:29.087Z,25.56
2023-05-10T06:36:02.942Z,26.10
2023-05-10T06:38:36.684Z,26.10
2023-05-10T06:41:10.167Z,25.58
2023-05-10T06:43:44.339Z,25.30
2023-05-10T06:46:38.282Z,25.48
2023-05-10T06:49:11.682Z,25.72
2023-05-10T06:51:44.972Z,26.32
2023-05-10T06:54:18.704Z,26.40
2023-05-10T06:56:51.984Z,26.40
2023-05-10T06:59:25.219Z,26.56
2023-05-10T07:01:58.828Z,26.32
2023-05-10T07:04:32.068Z,26.10
2023-05-10T07:07:05.221Z,25.76
2023-05-10T07:09:38.650Z,25.90
2023-05-10T07:12:14.119Z,26.18
2023-05-10T07:14:48.237Z,26.76
2023-05-10T07:17:21.437Z,27.00
2023-05-10T07:19:54.652Z,27.10
2023-05-10T07:22:27.949Z,27.50
2023-05-10T07:25:01.264Z,27.40
2023-05-10T07:27:34.612Z,27.00
2023-05-10T07:30:09.693Z,26.60
2023-05-10T07:32:43.348Z,27.32
2023-05-10T07:35:16.728Z,27.74
2023-05-10T07:37:50.152Z,27.68
2023-05-10T07:40:23.861Z,27.30
2023-05-10T07:42:57.059Z,27.10
2023-05-10T07:45:30.175Z,27.00
2023-05-10T07:48:03.550Z,27.52
2023-05-10T07:50:36.733Z,27.40
2023-05-10T07:53:09.920Z,27.34
2023-05-10T07:55:43.316Z,27.70
2023-05-10T07:58:16.485Z,28.52
2023-05-10T08:00:50.250Z,28.76
2023-05-10T08:03:23.452Z,29.10
2023-05-10T08:05:57.325Z,29.10
2023-05-10T08:08:30.509Z,29.60
2023-05-10T08:11:03.809Z,29.90
2023-05-10T08:13:37.013Z,30.00
2023-05-10T08:16:10.546Z,29.90
2023-05-10T08:18:46.003Z,29.60
2023-05-10T08:21:19.497Z,29.20
2023-05-10T08:23:52.665Z,29.52
2023-05-10T08:26:25.775Z,29.96
2023-05-10T08:28:59.057Z,30.10
2023-05-10T08:31:32.278Z,30.30
2023-05-10T08:34:05.521Z,30.50
2023-05-10T08:36:38.692Z,30.24
2023-05-10T08:39:22.955Z,30.16
2023-05-10T08:42:06.474Z,30.62
2023-05-10T08:44:40.436Z,30.40
2023-05-10T08:47:16.881Z,30.40
2023-05-10T08:49:52.613Z,30.50
2023-05-10T08:52:28.384Z,30.30
2023-05-10T08:55:01.785Z,30.56
2023-05-10T08:57:35.104Z,30.80
2023-05-10T09:00:11.091Z,31.02
2023-05-10T09:02:46.898Z,30.92
2023-05-10T09:05:20.599Z,31.10
2023-05-10T09:07:54.007Z,30.70
2023-05-10T09:10:29.767Z,30.64
2023-05-10T09:13:03.518Z,31.18
2023-05-10T09:15:36.677Z,31.60
2023-05-10T09:18:10.062Z,31.40
2023-05-10T09:20:43.841Z,31.26
2023-05-10T09:23:17.071Z,31.80
2023-05-10T09:25:50.760Z,31.62
2023-05-10T09:28:23.973Z,31.70
2023-05-10T09:30:59.695Z,31.64
2023-05-10T09:33:45.476Z,31.12
2023-05-10T09:36:19.459Z,31.10
2023-05-10T09:38:54.534Z,31.20
2023-05-10T09:41:28.125Z,31.30
2023-05-10T09:44:01.711Z,31.40
2023-05-10T09:46:38.863Z,31.40
2023-05-10T09:49:16.336Z,30.44
2023-05-10T09:51:49.762Z,30.14
2023-05-10T09:54:24.792Z,30.54
2023-05-10T09:56:58.012Z,30.34
2023-05-10T09:59:32.132Z,30.50
2023-05-10T10:02:05.976Z,30.82
2023-05-10T10:04:44.630Z,31.42
2023-05-10T10:07:24.118Z,31.60
2023-05-10T10:09:58.736Z,31.62
2023-05-10T10:12:32.653Z,31.30
2023-05-10T10:15:07.868Z,30.90
2023-05-10T10:17:43.271Z,30.34
2023-05-10T10:20:18.416Z,30.40
2023-05-10T10:22:52.322Z,30.20
2023-05-10T10:25:26.911Z,30.20
2023-05-10T10:28:18.477Z,30.34
2023-05-10T10:30:56.385Z,30.52
2023-05-10T10:33:59.047Z,30.50
2023-05-10T10:36:34.275Z,28.22
2023-05-10T10:39:14.631Z,26.34
2023-05-10T10:41:56.824Z,25.38
2023-05-10T10:44:41.272Z,24.82
2023-05-10T10:47:30.192Z,23.98
2023-05-10T10:50:13.892Z,23.70
2023-05-10T10:52:50.506Z,23.52
2023-05-10T10:55:25.983Z,23.50
2023-05-10T10:58:03.298Z,23.50
2023-05-10T11:00:37.950Z,23.50
2023-05-10T11:03:14.591Z,23.20
2023-05-10T11:05:49.547Z,23.00
2023-05-10T11:08:30.202Z,22.90
2023-05-10T11:11:11.184Z,22.70
2023-05-10T11:13:50.053Z,22.74
2023-05-10T11:16:27.876Z,22.50
2023-05-10T11:19:06.122Z,22.50
2023-05-10T11:21:51.245Z,22.70
2023-05-10T11:24:29.345Z,22.78
2023-05-10T11:27:03.041Z,22.72
2023-05-10T11:29:36.192Z,22.54
2023-05-10T11:32:10.422Z,22.26
2023-05-10T11:34:43.667Z,22.30
2023-05-10T11:37:16.847Z,22.20
2023-05-10T11:39:51.797Z,22.20
2023-05-10T11:42:25.078Z,22.30
2023-05-10T11:44:58.423Z,22.40
2023-05-10T11:47:31.778Z,22.60
2023-05-10T11:50:05.966Z,22.60
2023-05-10T11:52:42.030Z,22.70
2023-05-10T11:55:15.742Z,22.60
2023-05-10T11:57:49.338Z,22.46
2023-05-10T12:00:23.061Z,22.20
2023-05-10T12:02:56.587Z,22.26
2023-05-10T12:05:30.252Z,22.16
2023-05-10T12:08:18.001Z,22.10
2023-05-10T12:10:51.368Z,22.00
2023-05-10T12:13:25.175Z,21.80
2023-05-10T12:16:01.662Z,21.70
2023-05-10T12:18:35.248Z,21.70
2023-05-10T12:21:11.342Z,21.80
2023-05-10T12:23:47.147Z,21.74
2023-05-10T12:26:21.035Z,21.80
2023-05-10T12:31:57.311Z,21.80
2023-05-10T12:34:35.171Z,21.82
2023-05-10T12:37:08.568Z,21.90
2023-05-10T12:39:47.120Z,22.00
2023-05-10T12:42:20.339Z,21.90
2023-05-10T12:44:56.450Z,21.90
2023-05-10T12:47:29.694Z,21.90
2023-05-10T12:50:03.659Z,22.00
2023-05-10T12:52:36.818Z,22.10
2023-05-10T12:55:11.425Z,22.20
2023-05-10T12:57:44.485Z,22.30
2023-05-10T13:00:20.053Z,22.50
2023-05-10T13:02:53.210Z,22.60
2023-05-10T13:05:26.508Z,22.72
2023-05-10T13:07:59.688Z,22.90
2023-05-10T13:10:33.432Z,22.90
2023-05-10T13:13:06.748Z,23.00
2023-05-10T13:15:39.962Z,22.90
2023-05-10T13:18:13.226Z,22.80
2023-05-10T13:20:46.380Z,22.90
2023-05-10T13:23:19.512Z,22.90
2023-05-10T13:25:52.891Z,23.00
2023-05-10T13:28:27.268Z,23.10
2023-05-10T13:31:08.863Z,23.00
2023-05-10T13:33:42.086Z,22.76
2023-05-10T13:36:15.217Z,22.68
2023-05-10T13:38:48.406Z,22.44
2023-05-10T13:41:21.863Z,22.30
2023-05-10T13:43:55.046Z,22.08
2023-05-10T13:46:28.255Z,22.00
2023-05-10T13:49:01.430Z,22.04
2023-05-10T13:51:35.229Z,22.20
2023-05-10T13:54:08.633Z,22.20
2023-05-10T13:56:41.905Z,22.12
2023-05-10T13:59:15.245Z,22.10
2023-05-10T14:01:48.459Z,22.00
2023-05-10T14:04:21.684Z,21.92
2023-05-10T14:06:54.788Z,21.80
2023-05-10T14:09:27.901Z,21.82
2023-05-10T14:12:01.075Z,22.02
2023-05-10T14:14:34.277Z,22.04
2023-05-10T14:17:08.277Z,22.10
2023-05-10T14:19:42.733Z,22.20
2023-05-10T14:22:15.919Z,22.34
2023-05-10T14:24:49.035Z,22.40
2023-05-10T14:27:22.297Z,22.30
2023-05-10T14:29:55.700Z,22.30
2023-05-10T14:32:29.499Z,22.14
2023-05-10T14:35:03.036Z,22.00
2023-05-10T14:37:36.360Z,21.82
2023-05-10T14:40:13.390Z,21.76
2023-05-10T14:42:47.156Z,21.60
2023-05-10T14:45:20.511Z,21.50
2023-05-10T14:47:53.771Z,21.50
2023-05-10T14:50:36.585Z,21.48
2023-05-10T14:53:10.645Z,21.50
2023-05-10T14:55:44.351Z,21.50
2023-05-10T14:58:17.502Z,21.60
2023-05-10T15:00:50.634Z,21.68
2023-05-10T15:03:24.541Z,21.70
2023-05-10T15:05:58.770Z,21.72
2023-05-10T15:08:31.878Z,21.68
2023-05-10T15:11:05.083Z,21.60
2023-05-10T15:13:38.261Z,21.60
2023-05-10T15:16:11.702Z,21.60
2023-05-10T15:18:44.897Z,21.50
2023-05-10T15:21:18.279Z,21.50
2023-05-10T15:23:51.515Z,21.50
2023-05-10T15:26:25.020Z,21.50
2023-05-10T15:28:58.389Z,21.50
2023-05-10T15:31:31.682Z,21.50
2023-05-10T15:34:04.905Z,21.26
2023-05-10T15:36:38.140Z,21.10
2023-05-10T15:39:11.624Z,21.00
2023-05-10T15:41:44.872Z,20.90
2023-05-10T15:44:18.124Z,20.80
2023-05-10T15:46:51.606Z,20.80
2023-05-10T15:49:25.238Z,20.80
2023-05-10T15:51:58.402Z,20.70
2023-05-10T15:54:31.731Z,20.78
2023-05-10T15:57:05.128Z,20.70
2023-05-10T15:59:38.297Z,20.70
2023-05-10T16:02:12.306Z,20.68
2023-05-10T16:04:45.852Z,20.60
2023-05-10T16:07:19.095Z,20.60
2023-05-10T16:09:52.471Z,20.50
2023-05-10T16:12:25.746Z,20.50
2023-05-10T16:14:58.945Z,20.50
2023-05-10T16:17:32.255Z,20.60
2023-05-10T16:20:07.336Z,20.60
2023-05-10T16:22:40.861Z,20.60
2023-05-10T16:25:15.597Z,20.60
2023-05-10T16:27:48.999Z,20.52
2023-05-10T16:30:24.387Z,20.50
2023-05-10T16:32:58.068Z,20.40
2023-05-10T16:35:31.378Z,20.22
2023-05-10T16:38:04.512Z,20.10
2023-05-10T16:40:37.971Z,20.00
2023-05-10T16:43:11.289Z,19.90
2023-05-10T16:45:44.624Z,19.80
2023-05-10T16:48:17.975Z,19.80
2023-05-10T16:50:51.160Z,19.70
2023-05-10T16:53:24.376Z,19.70
2023-05-10T16:55:57.575Z,19.70
2023-05-10T16:58:30.766Z,19.70
2023-05-10T17:01:03.991Z,19.70
2023-05-10T17:03:37.283Z,19.66
2023-05-10T17:06:12.544Z,19.60
2023-05-10T17:08:45.779Z,19.60
2023-05-10T17:11:19.954Z,19.50
2023-05-10T17:13:53.211Z,19.50
2023-05-10T17:16:26.978Z,19.40
2023-05-10T17:19:00.230Z,19.30
2023-05-10T17:21:33.490Z,19.20
2023-05-10T17:24:06.992Z,19.10
2023-05-10T17:26:40.420Z,19.00
2023-05-10T17:29:14.026Z,19.00
2023-05-10T17:31:47.535Z,18.90
2023-05-10T17:34:20.717Z,18.84
2023-05-10T17:36:53.992Z,18.80
2023-05-10T17:39:27.159Z,18.80
2023-05-10T17:42:00.877Z,18.76
2023-05-10T17:44:34.066Z,18.70
2023-05-10T17:47:07.477Z,18.70
2023-05-10T17:49:40.907Z,18.60
2023-05-10T17:52:14.587Z,18.60
2023-05-10T17:54:47.836Z,18.50
2023-05-10T17:57:21.086Z,18.48
2023-05-10T17:59:54.307Z,18.40
2023-05-10T18:02:27.557Z,18.40
2023-05-10T18:05:01.583Z,18.32
2023-05-10T18:07:35.890Z,18.30
2023-05-10T18:10:11.633Z,18.30
2023-05-10T18:12:44.805Z,18.20
2023-05-10T18:15:18.076Z,18.20
2023-05-10T18:17:52.096Z,18.10
2023-05-10T18:20:25.939Z,18.10
2023-05-10T18:22:59.461Z,18.06
2023-05-10T18:25:32.749Z,18.00
2023-05-10T18:28:07.900Z,18.00
2023-05-10T18:30:41.672Z,17.90
2023-05-10T18:33:23.574Z,17.80
2023-05-10T18:35:56.829Z,17.80
2023-05-10T18:38:30.151Z,17.70
2023-05-10T18:41:04.100Z,17.70
2023-05-10T18:43:37.551Z,17.60
2023-05-10T18:46:11.064Z,17.58
2023-05-10T18:48:44.283Z,17.50
2023-05-10T18:51:17.474Z,17.40
2023-05-10T18:53:50.961Z,17.40
2023-05-10T18:56:24.338Z,17.30
2023-05-10T18:58:57.541Z,17.26
2023-05-10T19:01:30.888Z,17.20
2023-05-10T19:04:04.318Z,17.10
2023-05-10T19:06:38.216Z,17.04
2023-05-10T19:09:11.939Z,17.00
2023-05-10T19:11:45.195Z,16.90
2023-05-10T19:14:18.525Z,16.84
2023-05-10T19:16:53.390Z,16.80
2023-05-10T19:19:27.576Z,16.70
2023-05-10T19:22:02.411Z,16.70
2023-05-10T19:24:37.228Z,16.60
2023-05-10T19:27:11.406Z,16.60
2023-05-10T19:29:44.612Z,16.60
2023-05-10T19:32:18.154Z,16.50
2023-05-10T19:34:53.040Z,16.42
2023-05-10T19:37:26.621Z,16.40
2023-05-10T19:39:59.807Z,16.30
2023-05-10T19:42:32.932Z,16.20
2023-05-10T19:45:06.977Z,16.10
2023-05-10T19:47:41.865Z,16.00
2023-05-10T19:50:18.441Z,15.90
2023-05-10T19:52:52.465Z,15.80
2023-05-10T19:55:32.461Z,15.74
2023-05-10T19:58:06.494Z,15.70
2023-05-10T20:00:39.788Z,15.60
2023-05-10T20:03:13.101Z,15.54
2023-05-10T20:05:46.563Z,15.50
2023-05-10T20:08:19.746Z,15.40
2023-05-10T20:10:53.110Z,15.40
2023-05-10T20:13:26.325Z,15.30
2023-05-10T20:16:02.260Z,15.20
2023-05-10T20:18:35.623Z,15.20
2023-05-10T20:21:09.256Z,15.10
2023-05-10T20:23:42.512Z,15.06
2023-05-10T20:26:15.732Z,15.00
2023-05-10T20:28:48.857Z,15.00
2023-05-10T20:31:22.167Z,14.94
2023-05-10T20:33:55.330Z,14.90
2023-05-10T20:36:28.781Z,14.90
2023-05-10T20:39:01.927Z,14.90
2023-05-10T20:41:35.084Z,14.90
2023-05-10T20:44:08.484Z,14.90
2023-05-10T20:46:41.988Z,14.90
2023-05-10T20:49:15.257Z,14.90
2023-05-10T20:51:48.579Z,14.90
2023-05-10T20:54:22.238Z,14.96
2023-05-10T20:56:55.709Z,15.00
2023-05-10T20:59:28.884Z,15.00
2023-05-10T21:02:02.134Z,15.00
2023-05-10T21:04:35.306Z,15.10
2023-05-10T21:07:08.752Z,15.08
2023-05-10T21:09:42.006Z,15.00
2023-05-10T21:12:15.682Z,15.00
2023-05-10T21:14:48.829Z,15.00
2023-05-10T21:17:22.298Z,14.92
2023-05-10T21:19:55.662Z,14.90
2023-05-10T21:22:28.903Z,14.90
2023-05-10T21:25:02.082Z,14.90
2023-05-10T21:27:35.255Z,14.80
2023-05-10T21:30:11.002Z,14.80
2023-05-10T21:32:44.490Z,14.80
2023-05-10T21:35:17.795Z,14.80
2023-05-10T21:37:50.930Z,14.80
2023-05-10T21:40:24.594Z,14.80
2023-05-10T21:42:57.888Z,14.80
2023-05-10T21:45:32.878Z,14.80
2023-05-10T21:48:06.382Z,14.80
2023-05-10T21:51:01.598Z,14.80
2023-05-10T21:53:34.801Z,14.70
2023-05-10T21:56:08.374Z,14.70
2023-05-10T21:58:41.513Z,14.60
2023-05-10T22:01:15.122Z,14.60
2023-05-10T22:03:48.965Z,14.60
2023-05-10T22:06:22.172Z,14.60
2023-05-10T22:08:55.500Z,14.60
2023-05-10T22:11:28.820Z,14.54
2023-05-10T22:14:02.022Z,14.56
2023-05-10T22:16:35.199Z,14.50
2023-05-10T22:19:08.501Z,14.50
2023-05-10T22:21:42.109Z,14.50
2023-05-10T22:24:15.334Z,14.50
2023-05-10T22:26:48.513Z,14.50
2023-05-10T22:29:21.728Z,14.46
2023-05-10T22:31:54.822Z,14.40
2023-05-10T22:34:28.378Z,14.40
2023-05-10T22:37:01.516Z,14.40
2023-05-10T22:39:34.715Z,14.40
2023-05-10T22:42:08.170Z,14.40
2023-05-10T22:44:41.299Z,14.30
2023-05-10T22:47:14.613Z,14.30
2023-05-10T22:49:48.023Z,14.30
2023-05-10T22:52:21.125Z,14.20
2023-05-10T22:54:54.358Z,14.20
2023-05-10T22:57:28.256Z,14.16
2023-05-10T23:00:01.492Z,14.10
2023-05-10T23:02:35.323Z,14.02
2023-05-10T23:05:10.963Z,14.00
2023-05-10T23:07:44.202Z,13.90
2023-05-10T23:10:17.865Z,13.80
2023-05-10T23:12:51.288Z,13.76
2023-05-10T23:15:24.434Z,13.70
2023-05-10T23:18:00.948Z,13.64
2023-05-10T23:20:34.251Z,13.60
2023-05-10T23:23:07.407Z,13.60
2023-05-10T23:25:40.986Z,13.50
2023-05-10T23:28:14.145Z,13.50
2023-05-10T23:30:47.399Z,13.46
2023-05-10T23:33:20.555Z,13.40
2023-05-10T23:35:54.099Z,13.32
2023-05-10T23:38:27.342Z,13.30
2023-05-10T23:41:00.496Z,13.20
2023-05-10T23:43:33.642Z,13.10
2023-05-10T23:46:07.552Z,13.00
2023-05-10T23:48:40.729Z,12.90
2023-05-10T23:51:13.855Z,12.90
2023-05-10T23:53:47.045Z,12.80
2023-05-10T23:56:20.209Z,12.70
2023-05-10T23:58:53.412Z,12.70
